Prince Rupert Airport
CYPR : now visible

Airfield :











YOU CAN JOIN US ON...

 
LOGIN :

Register | Disclaimer

   EN    FR    IT 

 









Legend :    VFR   Marginal VFR   IFR   Intensive IFR   Very Intensive IFR
Visi :
Ceiling :
>= 8 km
>= 3000ft
5 to 8 km
1000 to 3000 ft
1500m to 5 km
500 to 1000 ft
800 to 1500m
200 to 500 ft
< 800m
< 200 ft
Symbols :   Thunderstorms  Fog  Heavy snow  Heavy precipitations  Wind > 20 kt






- Airport Elevation : 116 ft
- IATA code : YPR


CYPR - Prince Rupert

CURRENT METAR :
  • 090700Z AUTO 02006KT 9SM CLR 15/11 A3007 RMK SLP186

EXPIRED METARs :
  • 090600Z AUTO 35007KT 9SM CLR 15/10 A3008 RMK SLP187
  • 090500Z AUTO 36005KT 9SM CLR 16/11 A3009 RMK SLP190

TAF TAF CYPR
Valid from the 09 at 07:00 until the 09 at 19:00 UTC


090640Z 0907/0919 36006KT P6SM SKC
BECMG 0916/0918 30008KT RMK FCST BASED ON AUTO OBS. NXT FCST BY 091300Z
CZVR FIR / North America



MET'MAP, your aeronautical weather chart ! - Copyright ORBIFLY December 2007 - Disclaimer

ORBIFLY MET'MAP TEAM :

Programming & Development : Alexandra Zaïnal
Original concept : Baudouin d'Aumeries
Technical & hardware support : Manuel Goepfert
Assistance : Marc-Olivier Méhu




SOURCES & CREDITS :

   NOAA       Earth
Advisory